Terminal Aerodrome Forecast
Issued by NWS Sterling, VA

Current Version | Previous Version | Graphics & Text | Print | Product List | Glossary On
Versions: 1 2 3 4 5 6 7 8 9 10 11 12 13 14 15 16 17 18 19 20 21 22 23 24 25 26
000
FTUS41 KLWX 072300
TAFIAD
TAF
KIAD 072340Z 0800/0906 21008KT P6SM SKC
     FM080700 22004KT P6SM FEW050 SCT130
     FM081400 23009KT P6SM SCT050
     FM081500 24011KT P6SM BKN050
     FM090400 24007KT P6SM SCT050 OVC130=

USA.gov is the U.S. government's official web portal to all federal, state and local government web resources and services.